createdAt,value
2023-01-25T00:01:11.678Z,59.21
2023-01-25T00:03:39.771Z,59.54
2023-01-25T00:06:08.710Z,59.32
2023-01-25T00:08:38.673Z,59.26
2023-01-25T00:11:08.221Z,58.97
2023-01-25T00:13:36.136Z,59.65
2023-01-25T00:16:04.252Z,59.54
2023-01-25T00:18:32.456Z,59.52
2023-01-25T00:21:00.840Z,59.04
2023-01-25T00:23:28.860Z,59.47
2023-01-25T00:26:01.873Z,59.18
2023-01-25T00:28:29.836Z,59.45
2023-01-25T00:31:00.750Z,59.35
2023-01-25T00:33:40.823Z,58.87
2023-01-25T00:36:34.264Z,59.37
2023-01-25T00:39:02.210Z,59.16
2023-01-25T00:41:31.841Z,58.98
2023-01-25T00:43:59.915Z,59.33
2023-01-25T00:46:27.936Z,59.58
2023-01-25T00:48:58.103Z,59.37
2023-01-25T00:51:26.216Z,59.48
2023-01-25T00:53:54.595Z,59.87
2023-01-25T00:56:24.490Z,59.75
2023-01-25T00:58:53.866Z,59.50
2023-01-25T01:01:32.004Z,59.61
2023-01-25T01:04:00.081Z,59.79
2023-01-25T01:06:28.074Z,59.46
2023-01-25T01:09:25.073Z,60.16
2023-01-25T01:11:53.963Z,59.84
2023-01-25T01:14:59.137Z,59.51
2023-01-25T01:17:29.970Z,60.28
2023-01-25T01:20:00.248Z,59.63
2023-01-25T01:22:28.297Z,59.50
2023-01-25T01:24:56.299Z,59.85
2023-01-25T01:27:24.739Z,59.99
2023-01-25T01:29:52.777Z,59.56
2023-01-25T01:32:22.481Z,59.52
2023-01-25T01:34:53.846Z,59.30
2023-01-25T01:37:21.872Z,59.98
2023-01-25T01:39:49.915Z,59.98
2023-01-25T01:42:17.941Z,59.95
2023-01-25T01:44:48.416Z,59.94
2023-01-25T01:47:19.196Z,59.60
2023-01-25T01:49:55.143Z,60.08
2023-01-25T01:52:26.095Z,59.65
2023-01-25T01:54:55.660Z,59.55
2023-01-25T01:57:27.539Z,59.36
2023-01-25T01:59:58.393Z,59.71
2023-01-25T02:02:26.692Z,59.67
2023-01-25T02:04:58.429Z,59.68
2023-01-25T02:07:31.145Z,59.68
2023-01-25T02:10:01.590Z,60.09
2023-01-25T02:12:29.808Z,59.89
2023-01-25T02:14:57.864Z,60.18
2023-01-25T02:17:28.211Z,59.81
2023-01-25T02:20:03.187Z,59.62
2023-01-25T02:22:41.015Z,59.78
2023-01-25T02:25:11.269Z,60.04
2023-01-25T02:27:40.737Z,59.85
2023-01-25T02:30:10.810Z,59.90
2023-01-25T02:32:40.312Z,59.58
2023-01-25T02:35:15.837Z,59.68
2023-01-25T02:37:43.897Z,59.95
2023-01-25T02:40:14.038Z,59.59
2023-01-25T02:42:43.284Z,59.37
2023-01-25T02:45:11.934Z,60.24
2023-01-25T02:47:40.275Z,59.25
2023-01-25T02:50:09.154Z,59.79
2023-01-25T02:52:37.259Z,59.41
2023-01-25T02:55:06.017Z,59.40
2023-01-25T02:57:35.965Z,59.77
2023-01-25T03:00:04.342Z,59.67
2023-01-25T03:02:34.581Z,59.30
2023-01-25T03:05:05.487Z,59.85
2023-01-25T03:07:33.916Z,59.64
2023-01-25T03:10:01.953Z,59.64
2023-01-25T03:12:31.351Z,59.46
2023-01-25T03:15:01.487Z,59.71
2023-01-25T03:17:31.221Z,59.23
2023-01-25T03:19:59.254Z,60.10
2023-01-25T03:22:27.756Z,60.01
2023-01-25T03:24:57.324Z,60.16
2023-01-25T03:27:25.701Z,59.97
2023-01-25T03:30:02.682Z,59.78
2023-01-25T03:32:36.537Z,59.69
2023-01-25T03:35:11.269Z,59.45
2023-01-25T03:37:42.184Z,59.71
2023-01-25T03:40:12.056Z,60.33
2023-01-25T03:42:43.097Z,59.71
2023-01-25T03:45:14.495Z,60.32
2023-01-25T03:47:45.200Z,60.27
2023-01-25T03:50:13.338Z,60.04
2023-01-25T03:52:48.434Z,59.73
2023-01-25T03:55:17.096Z,60.14
2023-01-25T03:57:49.094Z,59.60
2023-01-25T04:00:21.209Z,59.79
2023-01-25T04:02:57.040Z,59.66
2023-01-25T04:05:25.270Z,59.97
2023-01-25T04:07:57.471Z,59.77
2023-01-25T04:10:33.998Z,59.69
2023-01-25T04:13:02.280Z,59.81
2023-01-25T04:15:35.691Z,59.84
2023-01-25T04:18:12.471Z,59.89
2023-01-25T04:20:42.297Z,59.84
2023-01-25T04:23:12.918Z,60.04
2023-01-25T04:25:42.900Z,59.79
2023-01-25T04:28:15.155Z,60.30
2023-01-25T04:30:45.139Z,60.49
2023-01-25T04:33:13.329Z,59.49
2023-01-25T04:35:42.769Z,60.29
2023-01-25T04:38:11.009Z,59.71
2023-01-25T04:40:41.789Z,59.73
2023-01-25T04:43:09.955Z,59.81
2023-01-25T04:45:38.196Z,59.98
2023-01-25T04:48:14.058Z,60.32
2023-01-25T04:50:49.686Z,60.43
2023-01-25T04:53:22.921Z,60.42
2023-01-25T04:55:52.497Z,60.43
2023-01-25T04:58:20.681Z,60.17
2023-01-25T05:00:50.375Z,59.87
2023-01-25T05:03:31.979Z,59.96
2023-01-25T05:06:02.616Z,59.97
2023-01-25T05:08:30.656Z,60.11
2023-01-25T05:11:02.176Z,60.18
2023-01-25T05:13:52.152Z,59.69
2023-01-25T05:16:27.781Z,60.32
2023-01-25T05:18:59.777Z,60.08
2023-01-25T05:21:53.273Z,60.01
2023-01-25T05:24:21.529Z,59.91
2023-01-25T05:27:03.704Z,60.15
2023-01-25T05:29:54.980Z,60.24
2023-01-25T05:32:44.586Z,60.22
2023-01-25T05:35:15.651Z,59.99
2023-01-25T05:37:44.834Z,59.95
2023-01-25T05:40:19.866Z,60.54
2023-01-25T05:42:54.806Z,60.42
2023-01-25T05:45:24.667Z,59.96
2023-01-25T05:47:55.914Z,60.03
2023-01-25T05:50:27.046Z,60.00
2023-01-25T05:53:05.494Z,60.24
2023-01-25T05:55:38.979Z,60.40
2023-01-25T05:58:10.944Z,60.37
2023-01-25T06:00:40.083Z,60.31
2023-01-25T06:03:08.353Z,60.27
2023-01-25T06:05:39.501Z,60.76
2023-01-25T06:08:09.044Z,60.39
2023-01-25T06:10:45.635Z,60.58
2023-01-25T06:13:13.797Z,60.82
2023-01-25T06:15:43.558Z,60.10
2023-01-25T06:18:32.847Z,60.69
2023-01-25T06:21:17.815Z,60.53
2023-01-25T06:23:46.146Z,60.27
2023-01-25T06:26:14.858Z,60.10
2023-01-25T06:28:43.537Z,60.84
2023-01-25T06:31:12.751Z,60.83
2023-01-25T06:33:48.691Z,61.02
2023-01-25T06:36:20.861Z,60.41
2023-01-25T06:38:49.750Z,60.49
2023-01-25T06:41:17.741Z,60.78
2023-01-25T06:43:45.894Z,60.33
2023-01-25T06:46:13.942Z,60.89
2023-01-25T06:48:43.170Z,60.56
2023-01-25T06:51:15.322Z,60.66
2023-01-25T06:53:45.915Z,60.41
2023-01-25T06:56:17.606Z,60.43
2023-01-25T06:58:45.887Z,60.95
2023-01-25T07:01:14.901Z,60.96
2023-01-25T07:03:43.107Z,60.88
2023-01-25T07:06:11.730Z,61.40
2023-01-25T07:08:42.626Z,60.96
2023-01-25T07:11:14.186Z,61.26
2023-01-25T07:13:45.824Z,60.60
2023-01-25T07:16:15.112Z,61.20
2023-01-25T07:18:43.270Z,61.25
2023-01-25T07:21:11.983Z,61.51
2023-01-25T07:23:44.205Z,60.90
2023-01-25T07:26:20.784Z,61.13
2023-01-25T07:28:48.942Z,60.92
2023-01-25T07:31:17.088Z,61.40
2023-01-25T07:33:49.341Z,61.54
2023-01-25T07:36:19.798Z,61.49
2023-01-25T07:38:47.962Z,61.80
2023-01-25T07:41:17.389Z,61.55
2023-01-25T07:43:45.938Z,61.70
2023-01-25T07:46:19.257Z,61.38
2023-01-25T07:48:51.438Z,61.70
2023-01-25T07:51:23.982Z,61.50
2023-01-25T07:53:53.861Z,61.59
2023-01-25T07:56:25.088Z,61.44
2023-01-25T07:58:53.941Z,61.65
2023-01-25T08:01:23.355Z,61.46
2023-01-25T08:03:54.196Z,61.58
2023-01-25T08:06:27.841Z,61.27
2023-01-25T08:08:56.589Z,61.54
2023-01-25T08:11:26.927Z,61.52
2023-01-25T08:13:55.012Z,61.81
2023-01-25T08:16:24.327Z,61.63
2023-01-25T08:18:54.930Z,61.44
2023-01-25T08:21:29.107Z,61.81
2023-01-25T08:23:58.629Z,61.45
2023-01-25T08:26:28.405Z,61.98
2023-01-25T08:28:56.569Z,61.99
2023-01-25T08:31:27.583Z,61.70
2023-01-25T08:33:58.426Z,61.71
2023-01-25T08:36:29.399Z,61.73
2023-01-25T08:38:58.484Z,61.64
2023-01-25T08:41:28.445Z,61.72
2023-01-25T08:43:56.616Z,61.94
2023-01-25T08:46:29.363Z,61.86
2023-01-25T08:49:05.802Z,61.91
2023-01-25T08:51:34.295Z,61.85
2023-01-25T08:54:12.852Z,61.98
2023-01-25T08:56:42.492Z,62.08
2023-01-25T08:59:14.534Z,62.00
2023-01-25T09:01:42.728Z,61.64
2023-01-25T09:04:10.807Z,61.63
2023-01-25T09:06:38.921Z,61.80
2023-01-25T09:09:09.377Z,61.93
2023-01-25T09:11:40.326Z,62.14
2023-01-25T09:14:09.932Z,62.15
2023-01-25T09:16:38.003Z,62.05
2023-01-25T09:19:07.574Z,62.30
2023-01-25T09:21:37.332Z,62.30
2023-01-25T09:24:07.588Z,62.10
2023-01-25T09:26:37.178Z,62.14
2023-01-25T09:29:08.013Z,62.10
2023-01-25T09:31:43.017Z,62.30
2023-01-25T09:34:14.637Z,62.31
2023-01-25T09:36:45.378Z,62.30
2023-01-25T09:39:13.569Z,62.48
2023-01-25T09:42:06.577Z,62.64
2023-01-25T09:44:47.636Z,62.57
2023-01-25T09:47:21.978Z,62.89
2023-01-25T09:50:00.680Z,62.47
2023-01-25T09:52:57.364Z,62.37
2023-01-25T09:55:29.542Z,62.51
2023-01-25T09:58:00.428Z,62.41
2023-01-25T10:00:34.029Z,62.52
2023-01-25T10:03:16.505Z,62.47
2023-01-25T10:05:46.029Z,62.46
2023-01-25T10:08:19.853Z,62.48
2023-01-25T10:10:50.847Z,62.52
2023-01-25T10:13:20.782Z,62.61
2023-01-25T10:15:52.655Z,62.52
2023-01-25T10:18:25.470Z,62.73
2023-01-25T10:20:57.802Z,62.55
2023-01-25T10:23:36.515Z,62.74
2023-01-25T10:26:07.887Z,62.98
2023-01-25T10:28:46.056Z,63.14
2023-01-25T10:31:19.268Z,62.88
2023-01-25T10:33:49.951Z,62.95
2023-01-25T10:36:24.099Z,62.87
2023-01-25T10:39:03.959Z,62.85
2023-01-25T10:41:35.975Z,62.79
2023-01-25T10:47:20.358Z,62.82
2023-01-25T10:49:51.424Z,62.97
2023-01-25T10:52:21.488Z,62.83
2023-01-25T10:54:50.967Z,62.96
2023-01-25T10:57:20.324Z,63.01
2023-01-25T10:59:51.615Z,63.06
2023-01-25T11:02:38.148Z,63.06
2023-01-25T11:05:29.347Z,63.26
2023-01-25T11:07:57.580Z,63.16
2023-01-25T11:10:31.711Z,63.36
2023-01-25T11:13:20.969Z,63.09
2023-01-25T11:15:50.914Z,63.06
2023-01-25T11:18:20.732Z,62.99
2023-01-25T11:20:52.414Z,63.28
2023-01-25T11:23:24.031Z,63.18
2023-01-25T11:25:52.372Z,63.08
2023-01-25T11:28:25.628Z,63.04
2023-01-25T11:30:54.187Z,62.86
2023-01-25T11:33:23.586Z,63.12
2023-01-25T11:36:07.444Z,62.90
2023-01-25T11:38:36.117Z,63.12
2023-01-25T11:41:08.416Z,63.03
2023-01-25T11:43:49.428Z,63.03
2023-01-25T11:46:22.962Z,63.45
2023-01-25T11:49:03.996Z,63.35
2023-01-25T11:51:40.372Z,63.25
2023-01-25T11:54:42.818Z,63.53
2023-01-25T11:57:22.986Z,63.74
2023-01-25T11:59:59.293Z,63.51
2023-01-25T12:02:45.197Z,63.71
2023-01-25T12:05:41.226Z,63.61
2023-01-25T12:08:21.244Z,63.48
2023-01-25T12:10:52.103Z,63.78
2023-01-25T12:13:22.806Z,63.88
2023-01-25T12:16:15.792Z,63.52
2023-01-25T12:19:15.444Z,63.74
2023-01-25T12:22:03.411Z,63.77
2023-01-25T12:24:50.483Z,63.98
2023-01-25T12:27:38.973Z,64.11
2023-01-25T12:30:14.595Z,64.38
2023-01-25T12:32:45.553Z,64.16
2023-01-25T12:35:25.090Z,64.09
2023-01-25T12:37:55.859Z,64.10
2023-01-25T12:40:30.689Z,64.05
2023-01-25T12:42:59.768Z,64.17
2023-01-25T12:45:30.871Z,64.10
2023-01-25T12:48:03.857Z,64.48
2023-01-25T12:50:34.779Z,64.43
2023-01-25T12:53:18.820Z,64.51
2023-01-25T12:55:48.410Z,64.25
2023-01-25T12:58:26.476Z,64.18
2023-01-25T13:01:04.349Z,64.59
2023-01-25T13:03:36.578Z,64.19
2023-01-25T13:06:11.199Z,64.43
2023-01-25T13:08:44.682Z,64.37
2023-01-25T13:11:17.610Z,64.17
2023-01-25T13:13:45.683Z,64.27
2023-01-25T13:16:43.432Z,64.63
2023-01-25T13:19:22.212Z,64.86
2023-01-25T13:21:59.445Z,64.92
2023-01-25T13:24:28.029Z,65.02
2023-01-25T13:27:06.349Z,64.75
2023-01-25T13:29:59.197Z,64.83
2023-01-25T13:33:06.105Z,64.92
2023-01-25T13:35:41.483Z,64.82
2023-01-25T13:38:40.009Z,65.06
2023-01-25T13:41:17.427Z,65.24
2023-01-25T13:44:13.375Z,66.07
2023-01-25T13:46:41.410Z,66.87
2023-01-25T13:49:30.478Z,66.45
2023-01-25T13:52:00.640Z,66.28
2023-01-25T13:54:28.776Z,66.02
2023-01-25T13:57:04.912Z,66.14
2023-01-25T13:59:34.625Z,66.17
2023-01-25T14:02:02.969Z,66.12
2023-01-25T14:04:31.693Z,65.88
2023-01-25T14:07:00.815Z,66.25
2023-01-25T14:09:28.988Z,66.01
2023-01-25T14:11:57.855Z,66.49
2023-01-25T14:14:27.032Z,66.10
2023-01-25T14:17:16.668Z,66.23
2023-01-25T14:19:45.355Z,66.48
2023-01-25T14:22:16.455Z,66.83
2023-01-25T14:24:44.502Z,66.73
2023-01-25T14:27:15.333Z,67.11
2023-01-25T14:29:49.140Z,67.13
2023-01-25T14:32:21.729Z,67.33
2023-01-25T14:34:50.225Z,67.31
2023-01-25T14:37:21.267Z,67.48
2023-01-25T14:39:50.052Z,67.30
2023-01-25T14:42:18.922Z,66.96
2023-01-25T14:44:47.010Z,67.20
2023-01-25T14:47:33.441Z,67.34
2023-01-25T14:50:30.495Z,67.49
2023-01-25T14:52:58.861Z,67.63
2023-01-25T14:55:29.363Z,67.23
2023-01-25T14:58:00.210Z,67.41
2023-01-25T15:00:31.868Z,67.37
2023-01-25T15:03:02.782Z,67.55
2023-01-25T15:05:33.040Z,67.47
2023-01-25T15:08:15.685Z,67.33
2023-01-25T15:10:51.863Z,67.30
2023-01-25T15:13:25.732Z,67.49
2023-01-25T15:15:57.963Z,67.26
2023-01-25T15:18:51.045Z,66.95
2023-01-25T15:21:20.213Z,67.41
2023-01-25T15:23:48.939Z,67.17
2023-01-25T15:26:24.625Z,67.44
2023-01-25T15:29:09.193Z,67.03
2023-01-25T15:31:40.145Z,67.12
2023-01-25T15:34:12.171Z,67.52
2023-01-25T15:36:40.379Z,67.59
2023-01-25T15:39:19.162Z,67.69
2023-01-25T15:41:47.498Z,67.42
2023-01-25T15:44:17.719Z,67.39
2023-01-25T15:46:47.343Z,67.36
2023-01-25T15:49:21.087Z,67.79
2023-01-25T15:51:54.050Z,67.88
2023-01-25T15:54:23.999Z,67.65
2023-01-25T15:56:53.859Z,67.57
2023-01-25T15:59:22.380Z,67.61
2023-01-25T16:01:50.758Z,67.76
2023-01-25T16:04:25.488Z,67.58
2023-01-25T16:06:55.486Z,67.59
2023-01-25T16:09:25.552Z,67.68
2023-01-25T16:11:56.478Z,67.50
2023-01-25T16:14:32.098Z,67.64
2023-01-25T16:17:02.718Z,67.24
2023-01-25T16:19:33.282Z,67.30
2023-01-25T16:22:02.355Z,67.72
2023-01-25T16:24:31.736Z,67.39
2023-01-25T16:27:00.403Z,67.35
2023-01-25T16:29:29.676Z,67.40
2023-01-25T16:31:58.077Z,67.29
2023-01-25T16:34:30.086Z,67.34
2023-01-25T16:37:20.052Z,67.79
2023-01-25T16:39:49.650Z,67.98
2023-01-25T16:42:18.060Z,67.87
2023-01-25T16:44:46.690Z,67.94
2023-01-25T16:47:18.662Z,67.87
2023-01-25T16:49:50.541Z,67.75
2023-01-25T16:52:27.479Z,67.78
2023-01-25T16:54:56.175Z,68.39
2023-01-25T16:57:26.898Z,67.92
2023-01-25T16:59:55.983Z,68.27
2023-01-25T17:02:27.390Z,68.19
2023-01-25T17:04:56.043Z,68.01
2023-01-25T17:07:27.961Z,68.61
2023-01-25T17:10:00.824Z,68.55
2023-01-25T17:12:31.012Z,68.17
2023-01-25T17:15:00.328Z,68.56
2023-01-25T17:17:33.311Z,68.36
2023-01-25T17:20:02.663Z,68.34
2023-01-25T17:22:37.287Z,68.30
2023-01-25T17:25:05.579Z,68.54
2023-01-25T17:27:33.600Z,68.50
2023-01-25T17:30:09.511Z,68.42
2023-01-25T17:32:37.750Z,68.37
2023-01-25T17:35:07.302Z,68.53
2023-01-25T17:37:40.976Z,68.24
2023-01-25T17:40:11.521Z,68.44
2023-01-25T17:42:42.971Z,68.63
2023-01-25T17:45:12.134Z,68.81
2023-01-25T17:47:40.403Z,68.94
2023-01-25T17:50:12.715Z,68.71
2023-01-25T17:52:51.933Z,68.69
2023-01-25T17:55:19.910Z,68.88
2023-01-25T17:57:51.303Z,68.67
2023-01-25T18:00:20.229Z,68.87
2023-01-25T18:02:50.356Z,68.97
2023-01-25T18:05:18.545Z,68.95
2023-01-25T18:07:47.926Z,69.39
2023-01-25T18:10:16.572Z,68.95
2023-01-25T18:13:03.571Z,68.83
2023-01-25T18:15:33.406Z,68.52
2023-01-25T18:18:02.116Z,68.36
2023-01-25T18:20:31.637Z,68.02
2023-01-25T18:23:10.089Z,68.04
2023-01-25T18:25:40.661Z,68.26
2023-01-25T18:28:10.102Z,68.14
2023-01-25T18:30:42.796Z,68.33
2023-01-25T18:33:10.906Z,68.26
2023-01-25T18:35:40.640Z,67.91
2023-01-25T18:38:12.880Z,68.25
2023-01-25T18:40:41.863Z,67.84
2023-01-25T18:43:11.591Z,67.57
2023-01-25T18:45:42.074Z,67.58
2023-01-25T18:48:13.237Z,67.49
2023-01-25T18:50:41.819Z,66.68
2023-01-25T18:53:11.142Z,66.68
2023-01-25T18:55:39.280Z,66.67
2023-01-25T18:58:22.556Z,66.46
2023-01-25T19:00:59.259Z,66.41
2023-01-25T19:03:30.516Z,66.49
2023-01-25T19:06:01.706Z,66.37
2023-01-25T19:08:34.223Z,66.19
2023-01-25T19:11:02.789Z,66.26
2023-01-25T19:13:32.391Z,65.97
2023-01-25T19:16:02.829Z,66.17
2023-01-25T19:18:35.211Z,65.84
2023-01-25T19:21:03.623Z,66.09
2023-01-25T19:23:35.253Z,65.85
2023-01-25T19:26:03.353Z,65.63
2023-01-25T19:28:31.328Z,65.81
2023-01-25T19:31:07.116Z,65.34
2023-01-25T19:33:35.456Z,65.80
2023-01-25T19:36:05.092Z,65.66
2023-01-25T19:38:40.449Z,65.87
2023-01-25T19:41:09.567Z,65.58
2023-01-25T19:43:37.571Z,65.59
2023-01-25T19:46:10.054Z,65.63
2023-01-25T19:48:38.177Z,65.91
2023-01-25T19:51:12.607Z,65.68
2023-01-25T19:53:47.328Z,65.68
2023-01-25T19:56:16.349Z,65.45
2023-01-25T19:58:46.935Z,65.58
2023-01-25T20:01:15.922Z,65.69
2023-01-25T20:03:44.260Z,65.38
2023-01-25T20:06:12.888Z,65.30
2023-01-25T20:08:43.366Z,65.72
2023-01-25T20:11:13.393Z,65.41
2023-01-25T20:13:41.424Z,65.24
2023-01-25T20:16:11.788Z,65.45
2023-01-25T20:18:40.032Z,65.59
2023-01-25T20:21:08.810Z,65.51
2023-01-25T20:23:40.478Z,65.54
2023-01-25T20:26:14.801Z,65.56
2023-01-25T20:28:43.329Z,65.48
2023-01-25T20:31:21.944Z,65.52
2023-01-25T20:33:51.291Z,65.45
2023-01-25T20:36:19.643Z,65.42
2023-01-25T20:38:47.788Z,64.93
2023-01-25T20:41:23.090Z,64.86
2023-01-25T20:43:55.187Z,64.73
2023-01-25T20:46:23.482Z,64.96
2023-01-25T20:48:52.115Z,64.89
2023-01-25T20:51:23.856Z,64.73
2023-01-25T20:53:54.579Z,64.46
2023-01-25T20:56:23.987Z,64.56
2023-01-25T20:58:52.084Z,64.51
2023-01-25T21:01:21.501Z,64.30
2023-01-25T21:03:51.266Z,64.52
2023-01-25T21:06:19.322Z,64.56
2023-01-25T21:08:47.410Z,64.27
2023-01-25T21:11:15.723Z,64.28
2023-01-25T21:13:45.080Z,64.14
2023-01-25T21:16:14.978Z,63.98
2023-01-25T21:18:43.699Z,64.13
2023-01-25T21:21:12.937Z,64.23
2023-01-25T21:23:42.368Z,63.99
2023-01-25T21:26:14.361Z,64.37
2023-01-25T21:28:51.447Z,63.65
2023-01-25T21:31:20.218Z,63.05
2023-01-25T21:33:50.813Z,63.59
2023-01-25T21:36:21.351Z,63.41
2023-01-25T21:38:50.100Z,63.02
2023-01-25T21:41:19.887Z,62.92
2023-01-25T21:44:08.931Z,62.89
2023-01-25T21:46:38.611Z,62.88
2023-01-25T21:49:25.682Z,62.56
2023-01-25T21:51:56.800Z,63.11
2023-01-25T21:54:26.490Z,63.08
2023-01-25T21:56:55.755Z,63.00
2023-01-25T21:59:32.708Z,62.82
2023-01-25T22:02:00.687Z,62.79
2023-01-25T22:04:28.688Z,62.85
2023-01-25T22:06:56.724Z,62.74
2023-01-25T22:09:24.781Z,63.03
2023-01-25T22:11:54.200Z,63.07
2023-01-25T22:14:23.548Z,62.88
2023-01-25T22:16:53.276Z,62.81
2023-01-25T22:19:21.296Z,63.51
2023-01-25T22:21:50.534Z,62.74
2023-01-25T22:24:18.576Z,63.12
2023-01-25T22:26:51.914Z,63.19
2023-01-25T22:29:19.955Z,63.03
2023-01-25T22:31:48.076Z,62.81
2023-01-25T22:34:17.655Z,62.93
2023-01-25T22:36:48.654Z,62.84
2023-01-25T22:39:16.912Z,62.56
2023-01-25T22:41:44.874Z,63.02
2023-01-25T22:44:14.602Z,62.77
2023-01-25T22:46:43.009Z,62.41
2023-01-25T22:49:11.025Z,62.55
2023-01-25T22:51:42.704Z,62.50
2023-01-25T22:54:10.717Z,62.05
2023-01-25T22:56:38.717Z,62.43
2023-01-25T22:59:08.080Z,62.48
2023-01-25T23:01:36.063Z,62.49
2023-01-25T23:04:04.173Z,62.38
2023-01-25T23:06:34.175Z,62.52
2023-01-25T23:09:05.380Z,62.40
2023-01-25T23:11:39.337Z,62.17
2023-01-25T23:14:27.826Z,62.00
2023-01-25T23:17:25.676Z,62.06
2023-01-25T23:19:53.054Z,61.74
2023-01-25T23:22:24.140Z,61.93
2023-01-25T23:24:53.995Z,61.83
2023-01-25T23:27:22.019Z,61.90
2023-01-25T23:29:51.836Z,61.92
2023-01-25T23:32:20.019Z,61.83
2023-01-25T23:34:53.138Z,62.24
2023-01-25T23:37:24.720Z,62.27
2023-01-25T23:39:54.266Z,62.18
2023-01-25T23:42:26.162Z,62.07
2023-01-25T23:44:56.846Z,62.02
2023-01-25T23:47:28.069Z,62.13
2023-01-25T23:49:58.876Z,62.08
2023-01-25T23:52:26.836Z,62.25
2023-01-25T23:55:02.530Z,62.30
2023-01-25T23:57:31.008Z,62.35
2023-01-25T23:59:58.953Z,62.42
